sensor_id;sensor_type;location;lat;lon;timestamp;P1;durP1;ratioP1;P2;durP2;ratioP2
49514;SDS011;35415;47.870;16.058;2023-06-10T00:01:34;5.43;;;4.10;;
49514;SDS011;35415;47.870;16.058;2023-06-10T00:04:03;5.97;;;3.78;;
49514;SDS011;35415;47.870;16.058;2023-06-10T00:06:41;5.40;;;4.30;;
49514;SDS011;35415;47.870;16.058;2023-06-10T00:09:10;4.45;;;3.75;;
49514;SDS011;35415;47.870;16.058;2023-06-10T00:11:39;6.90;;;3.95;;
49514;SDS011;35415;47.870;16.058;2023-06-10T00:14:07;6.57;;;3.58;;
49514;SDS011;35415;47.870;16.058;2023-06-10T00:16:36;6.93;;;3.97;;
49514;SDS011;35415;47.870;16.058;2023-06-10T00:19:10;4.38;;;3.83;;
49514;SDS011;35415;47.870;16.058;2023-06-10T00:21:43;5.05;;;4.15;;
49514;SDS011;35415;47.870;16.058;2023-06-10T00:24:13;7.40;;;4.03;;
49514;SDS011;35415;47.870;16.058;2023-06-10T00:26:41;7.00;;;3.60;;
49514;SDS011;35415;47.870;16.058;2023-06-10T00:29:10;5.32;;;3.80;;
49514;SDS011;35415;47.870;16.058;2023-06-10T00:31:45;6.93;;;4.13;;
49514;SDS011;35415;47.870;16.058;2023-06-10T00:34:12;6.50;;;3.92;;
49514;SDS011;35415;47.870;16.058;2023-06-10T00:36:45;6.63;;;4.57;;
49514;SDS011;35415;47.870;16.058;2023-06-10T00:39:14;9.48;;;4.55;;
49514;SDS011;35415;47.870;16.058;2023-06-10T00:41:44;7.65;;;4.18;;
49514;SDS011;35415;47.870;16.058;2023-06-10T00:44:12;4.95;;;4.13;;
49514;SDS011;35415;47.870;16.058;2023-06-10T00:46:42;6.35;;;4.25;;
49514;SDS011;35415;47.870;16.058;2023-06-10T00:49:14;4.38;;;3.95;;
49514;SDS011;35415;47.870;16.058;2023-06-10T00:51:49;6.20;;;4.40;;
49514;SDS011;35415;47.870;16.058;2023-06-10T00:54:18;4.47;;;3.63;;
49514;SDS011;35415;47.870;16.058;2023-06-10T00:56:55;4.78;;;4.07;;
49514;SDS011;35415;47.870;16.058;2023-06-10T00:59:24;4.35;;;3.53;;
49514;SDS011;35415;47.870;16.058;2023-06-10T01:01:56;4.10;;;3.67;;
49514;SDS011;35415;47.870;16.058;2023-06-10T01:04:23;5.13;;;4.18;;
49514;SDS011;35415;47.870;16.058;2023-06-10T01:06:54;10.38;;;4.55;;
49514;SDS011;35415;47.870;16.058;2023-06-10T01:09:33;6.72;;;3.80;;
49514;SDS011;35415;47.870;16.058;2023-06-10T01:12:08;4.72;;;3.45;;
49514;SDS011;35415;47.870;16.058;2023-06-10T01:14:40;6.70;;;4.00;;
49514;SDS011;35415;47.870;16.058;2023-06-10T01:17:12;6.57;;;3.80;;
49514;SDS011;35415;47.870;16.058;2023-06-10T01:19:42;5.15;;;3.80;;
49514;SDS011;35415;47.870;16.058;2023-06-10T01:22:14;4.63;;;3.97;;
49514;SDS011;35415;47.870;16.058;2023-06-10T01:24:42;4.43;;;3.92;;
49514;SDS011;35415;47.870;16.058;2023-06-10T01:27:15;7.88;;;3.88;;
49514;SDS011;35415;47.870;16.058;2023-06-10T01:29:50;4.95;;;4.20;;
49514;SDS011;35415;47.870;16.058;2023-06-10T01:32:22;6.68;;;4.47;;
49514;SDS011;35415;47.870;16.058;2023-06-10T01:34:56;5.15;;;3.78;;
49514;SDS011;35415;47.870;16.058;2023-06-10T01:37:26;4.80;;;3.75;;
49514;SDS011;35415;47.870;16.058;2023-06-10T01:39:55;4.53;;;3.60;;
49514;SDS011;35415;47.870;16.058;2023-06-10T01:42:24;4.93;;;3.90;;
49514;SDS011;35415;47.870;16.058;2023-06-10T01:44:52;5.47;;;3.83;;
49514;SDS011;35415;47.870;16.058;2023-06-10T01:47:20;7.95;;;3.50;;
49514;SDS011;35415;47.870;16.058;2023-06-10T01:49:47;5.05;;;4.10;;
49514;SDS011;35415;47.870;16.058;2023-06-10T01:52:21;4.65;;;4.10;;
49514;SDS011;35415;47.870;16.058;2023-06-10T01:54:50;6.72;;;4.25;;
49514;SDS011;35415;47.870;16.058;2023-06-10T01:57:26;4.65;;;4.15;;
49514;SDS011;35415;47.870;16.058;2023-06-10T01:59:53;6.13;;;3.95;;
49514;SDS011;35415;47.870;16.058;2023-06-10T02:02:21;4.45;;;3.75;;
49514;SDS011;35415;47.870;16.058;2023-06-10T02:04:50;7.57;;;3.65;;
49514;SDS011;35415;47.870;16.058;2023-06-10T02:07:17;6.80;;;3.90;;
49514;SDS011;35415;47.870;16.058;2023-06-10T02:09:47;4.65;;;3.90;;
49514;SDS011;35415;47.870;16.058;2023-06-10T02:12:20;7.03;;;4.60;;
49514;SDS011;35415;47.870;16.058;2023-06-10T02:14:48;4.15;;;3.63;;
49514;SDS011;35415;47.870;16.058;2023-06-10T02:17:16;5.25;;;3.60;;
49514;SDS011;35415;47.870;16.058;2023-06-10T02:19:43;10.90;;;4.32;;
49514;SDS011;35415;47.870;16.058;2023-06-10T02:22:19;9.10;;;3.75;;
49514;SDS011;35415;47.870;16.058;2023-06-10T02:24:50;4.85;;;4.13;;
49514;SDS011;35415;47.870;16.058;2023-06-10T02:27:18;8.57;;;3.95;;
49514;SDS011;35415;47.870;16.058;2023-06-10T02:29:46;7.00;;;3.80;;
49514;SDS011;35415;47.870;16.058;2023-06-10T02:32:19;6.90;;;3.70;;
49514;SDS011;35415;47.870;16.058;2023-06-10T02:34:49;4.15;;;3.60;;
49514;SDS011;35415;47.870;16.058;2023-06-10T02:37:20;9.80;;;3.67;;
49514;SDS011;35415;47.870;16.058;2023-06-10T02:39:47;4.05;;;3.50;;
49514;SDS011;35415;47.870;16.058;2023-06-10T02:42:17;4.80;;;4.00;;
49514;SDS011;35415;47.870;16.058;2023-06-10T02:44:48;4.43;;;3.58;;
49514;SDS011;35415;47.870;16.058;2023-06-10T02:47:16;7.47;;;4.00;;
49514;SDS011;35415;47.870;16.058;2023-06-10T02:49:44;4.07;;;3.67;;
49514;SDS011;35415;47.870;16.058;2023-06-10T02:52:12;4.40;;;4.00;;
49514;SDS011;35415;47.870;16.058;2023-06-10T02:54:40;5.07;;;3.45;;
49514;SDS011;35415;47.870;16.058;2023-06-10T02:57:10;4.70;;;3.58;;
49514;SDS011;35415;47.870;16.058;2023-06-10T02:59:44;9.50;;;3.45;;
49514;SDS011;35415;47.870;16.058;2023-06-10T03:04:39;7.50;;;3.70;;
49514;SDS011;35415;47.870;16.058;2023-06-10T03:07:09;7.28;;;3.70;;
49514;SDS011;35415;47.870;16.058;2023-06-10T03:09:37;5.07;;;4.05;;
49514;SDS011;35415;47.870;16.058;2023-06-10T03:12:06;4.82;;;3.95;;
49514;SDS011;35415;47.870;16.058;2023-06-10T03:14:34;5.32;;;3.30;;
49514;SDS011;35415;47.870;16.058;2023-06-10T03:17:05;6.85;;;4.00;;
49514;SDS011;35415;47.870;16.058;2023-06-10T03:19:33;4.28;;;3.55;;
49514;SDS011;35415;47.870;16.058;2023-06-10T03:22:07;4.75;;;3.75;;
49514;SDS011;35415;47.870;16.058;2023-06-10T03:24:36;3.55;;;3.25;;
49514;SDS011;35415;47.870;16.058;2023-06-10T03:27:08;7.15;;;3.67;;
49514;SDS011;35415;47.870;16.058;2023-06-10T03:29:36;6.07;;;4.43;;
49514;SDS011;35415;47.870;16.058;2023-06-10T03:32:07;3.70;;;3.33;;
49514;SDS011;35415;47.870;16.058;2023-06-10T03:34:41;4.82;;;3.95;;
49514;SDS011;35415;47.870;16.058;2023-06-10T03:37:10;4.70;;;3.53;;
49514;SDS011;35415;47.870;16.058;2023-06-10T03:39:37;5.53;;;4.15;;
49514;SDS011;35415;47.870;16.058;2023-06-10T03:42:06;4.43;;;3.53;;
49514;SDS011;35415;47.870;16.058;2023-06-10T03:44:34;5.30;;;4.13;;
49514;SDS011;35415;47.870;16.058;2023-06-10T03:49:35;6.35;;;3.90;;
49514;SDS011;35415;47.870;16.058;2023-06-10T03:52:03;7.50;;;3.80;;
49514;SDS011;35415;47.870;16.058;2023-06-10T03:54:31;3.72;;;3.38;;
49514;SDS011;35415;47.870;16.058;2023-06-10T03:57:01;4.53;;;3.60;;
49514;SDS011;35415;47.870;16.058;2023-06-10T03:59:29;4.60;;;3.63;;
49514;SDS011;35415;47.870;16.058;2023-06-10T04:01:56;3.40;;;3.10;;
49514;SDS011;35415;47.870;16.058;2023-06-10T04:04:29;4.35;;;3.92;;
49514;SDS011;35415;47.870;16.058;2023-06-10T04:06:56;5.75;;;3.63;;
49514;SDS011;35415;47.870;16.058;2023-06-10T04:09:24;5.15;;;3.78;;
49514;SDS011;35415;47.870;16.058;2023-06-10T04:11:53;6.30;;;3.65;;
49514;SDS011;35415;47.870;16.058;2023-06-10T04:14:31;6.30;;;4.05;;
49514;SDS011;35415;47.870;16.058;2023-06-10T04:17:16;6.57;;;3.63;;
49514;SDS011;35415;47.870;16.058;2023-06-10T04:19:47;5.30;;;3.60;;
49514;SDS011;35415;47.870;16.058;2023-06-10T04:22:16;6.47;;;3.80;;
49514;SDS011;35415;47.870;16.058;2023-06-10T04:24:45;7.57;;;4.80;;
49514;SDS011;35415;47.870;16.058;2023-06-10T04:27:12;4.45;;;3.55;;
49514;SDS011;35415;47.870;16.058;2023-06-10T04:29:40;5.50;;;4.13;;
49514;SDS011;35415;47.870;16.058;2023-06-10T04:32:09;5.93;;;4.15;;
49514;SDS011;35415;47.870;16.058;2023-06-10T04:34:43;4.55;;;3.70;;
49514;SDS011;35415;47.870;16.058;2023-06-10T04:37:15;9.20;;;5.05;;
49514;SDS011;35415;47.870;16.058;2023-06-10T04:39:45;5.22;;;3.60;;
49514;SDS011;35415;47.870;16.058;2023-06-10T04:42:13;4.05;;;3.53;;
49514;SDS011;35415;47.870;16.058;2023-06-10T04:44:43;5.00;;;3.72;;
49514;SDS011;35415;47.870;16.058;2023-06-10T04:47:13;4.97;;;4.10;;
49514;SDS011;35415;47.870;16.058;2023-06-10T04:49:42;4.68;;;3.80;;
49514;SDS011;35415;47.870;16.058;2023-06-10T04:52:10;6.10;;;3.75;;
49514;SDS011;35415;47.870;16.058;2023-06-10T04:54:41;4.15;;;3.70;;
49514;SDS011;35415;47.870;16.058;2023-06-10T04:57:11;5.37;;;4.03;;
49514;SDS011;35415;47.870;16.058;2023-06-10T04:59:38;5.95;;;4.03;;
49514;SDS011;35415;47.870;16.058;2023-06-10T05:04:38;4.05;;;3.65;;
49514;SDS011;35415;47.870;16.058;2023-06-10T05:07:06;6.82;;;4.28;;
49514;SDS011;35415;47.870;16.058;2023-06-10T05:09:33;4.20;;;3.80;;
49514;SDS011;35415;47.870;16.058;2023-06-10T05:12:08;4.57;;;3.70;;
49514;SDS011;35415;47.870;16.058;2023-06-10T05:14:36;5.40;;;4.30;;
49514;SDS011;35415;47.870;16.058;2023-06-10T05:17:06;4.18;;;3.60;;
49514;SDS011;35415;47.870;16.058;2023-06-10T05:19:34;5.28;;;4.53;;
49514;SDS011;35415;47.870;16.058;2023-06-10T05:22:03;5.43;;;4.20;;
49514;SDS011;35415;47.870;16.058;2023-06-10T05:24:33;4.95;;;3.83;;
49514;SDS011;35415;47.870;16.058;2023-06-10T05:27:00;4.35;;;3.83;;
49514;SDS011;35415;47.870;16.058;2023-06-10T05:29:34;4.57;;;3.97;;
49514;SDS011;35415;47.870;16.058;2023-06-10T05:32:02;6.65;;;3.80;;
49514;SDS011;35415;47.870;16.058;2023-06-10T05:34:29;4.47;;;3.78;;
49514;SDS011;35415;47.870;16.058;2023-06-10T05:37:00;4.00;;;3.53;;
49514;SDS011;35415;47.870;16.058;2023-06-10T05:39:27;5.13;;;3.55;;
49514;SDS011;35415;47.870;16.058;2023-06-10T05:41:55;6.47;;;3.67;;
49514;SDS011;35415;47.870;16.058;2023-06-10T05:44:24;6.22;;;3.67;;
49514;SDS011;35415;47.870;16.058;2023-06-10T05:46:54;5.22;;;4.03;;
49514;SDS011;35415;47.870;16.058;2023-06-10T05:49:22;6.53;;;4.10;;
49514;SDS011;35415;47.870;16.058;2023-06-10T05:51:54;5.97;;;4.28;;
49514;SDS011;35415;47.870;16.058;2023-06-10T05:54:38;6.13;;;3.78;;
49514;SDS011;35415;47.870;16.058;2023-06-10T05:57:07;4.93;;;3.85;;
49514;SDS011;35415;47.870;16.058;2023-06-10T05:59:35;4.28;;;3.75;;
49514;SDS011;35415;47.870;16.058;2023-06-10T06:12:32;5.15;;;4.50;;
49514;SDS011;35415;47.870;16.058;2023-06-10T06:15:02;8.60;;;4.35;;
49514;SDS011;35415;47.870;16.058;2023-06-10T06:17:30;7.20;;;4.63;;
49514;SDS011;35415;47.870;16.058;2023-06-10T06:19:57;5.45;;;4.68;;
49514;SDS011;35415;47.870;16.058;2023-06-10T06:22:24;7.47;;;5.55;;
49514;SDS011;35415;47.870;16.058;2023-06-10T06:24:52;5.88;;;4.97;;
49514;SDS011;35415;47.870;16.058;2023-06-10T06:27:19;8.98;;;5.47;;
49514;SDS011;35415;47.870;16.058;2023-06-10T06:30:01;5.75;;;4.78;;
49514;SDS011;35415;47.870;16.058;2023-06-10T06:32:30;10.23;;;5.28;;
49514;SDS011;35415;47.870;16.058;2023-06-10T06:34:57;6.35;;;5.13;;
49514;SDS011;35415;47.870;16.058;2023-06-10T06:37:27;7.28;;;5.30;;
49514;SDS011;35415;47.870;16.058;2023-06-10T06:39:55;6.60;;;4.60;;
49514;SDS011;35415;47.870;16.058;2023-06-10T06:42:22;7.32;;;5.15;;
49514;SDS011;35415;47.870;16.058;2023-06-10T06:44:52;6.45;;;5.45;;
49514;SDS011;35415;47.870;16.058;2023-06-10T06:47:19;6.32;;;5.22;;
49514;SDS011;35415;47.870;16.058;2023-06-10T06:49:47;7.70;;;6.07;;
49514;SDS011;35415;47.870;16.058;2023-06-10T06:52:15;6.85;;;4.93;;
49514;SDS011;35415;47.870;16.058;2023-06-10T06:54:44;5.55;;;4.78;;
49514;SDS011;35415;47.870;16.058;2023-06-10T06:57:17;6.15;;;4.70;;
49514;SDS011;35415;47.870;16.058;2023-06-10T06:59:48;6.95;;;5.40;;
49514;SDS011;35415;47.870;16.058;2023-06-10T07:02:18;7.10;;;5.30;;
49514;SDS011;35415;47.870;16.058;2023-06-10T07:04:46;5.93;;;5.10;;
49514;SDS011;35415;47.870;16.058;2023-06-10T07:07:23;5.93;;;4.90;;
49514;SDS011;35415;47.870;16.058;2023-06-10T07:12:42;8.23;;;5.45;;
49514;SDS011;35415;47.870;16.058;2023-06-10T07:15:16;5.75;;;4.75;;
49514;SDS011;35415;47.870;16.058;2023-06-10T07:17:49;7.18;;;5.60;;
49514;SDS011;35415;47.870;16.058;2023-06-10T07:20:18;6.78;;;5.10;;
49514;SDS011;35415;47.870;16.058;2023-06-10T07:22:51;6.55;;;5.65;;
49514;SDS011;35415;47.870;16.058;2023-06-10T07:25:25;7.13;;;5.47;;
49514;SDS011;35415;47.870;16.058;2023-06-10T07:28:00;5.38;;;4.88;;
49514;SDS011;35415;47.870;16.058;2023-06-10T07:30:32;6.78;;;4.70;;
49514;SDS011;35415;47.870;16.058;2023-06-10T07:33:01;5.97;;;5.20;;
49514;SDS011;35415;47.870;16.058;2023-06-10T07:35:33;7.97;;;5.43;;
49514;SDS011;35415;47.870;16.058;2023-06-10T07:38:03;6.13;;;5.07;;
49514;SDS011;35415;47.870;16.058;2023-06-10T07:40:31;6.68;;;4.93;;
49514;SDS011;35415;47.870;16.058;2023-06-10T07:43:01;5.97;;;5.40;;
49514;SDS011;35415;47.870;16.058;2023-06-10T07:45:29;5.18;;;4.63;;
49514;SDS011;35415;47.870;16.058;2023-06-10T07:48:05;5.70;;;5.07;;
49514;SDS011;35415;47.870;16.058;2023-06-10T07:51:03;5.68;;;4.88;;
49514;SDS011;35415;47.870;16.058;2023-06-10T07:53:30;5.68;;;5.00;;
49514;SDS011;35415;47.870;16.058;2023-06-10T07:55:58;5.38;;;4.80;;
49514;SDS011;35415;47.870;16.058;2023-06-10T07:58:31;9.43;;;4.55;;
49514;SDS011;35415;47.870;16.058;2023-06-10T08:01:01;5.10;;;4.47;;
49514;SDS011;35415;47.870;16.058;2023-06-10T08:03:36;8.02;;;5.50;;
49514;SDS011;35415;47.870;16.058;2023-06-10T08:06:06;6.00;;;5.40;;
49514;SDS011;35415;47.870;16.058;2023-06-10T08:08:34;5.82;;;5.20;;
49514;SDS011;35415;47.870;16.058;2023-06-10T08:11:06;6.88;;;4.93;;
49514;SDS011;35415;47.870;16.058;2023-06-10T08:13:34;6.25;;;5.20;;
49514;SDS011;35415;47.870;16.058;2023-06-10T08:16:05;7.65;;;5.78;;
49514;SDS011;35415;47.870;16.058;2023-06-10T08:18:33;6.85;;;5.90;;
49514;SDS011;35415;47.870;16.058;2023-06-10T08:21:04;7.40;;;6.10;;
49514;SDS011;35415;47.870;16.058;2023-06-10T08:23:36;10.52;;;6.43;;
49514;SDS011;35415;47.870;16.058;2023-06-10T08:26:04;6.43;;;5.82;;
49514;SDS011;35415;47.870;16.058;2023-06-10T08:28:32;8.25;;;6.20;;
49514;SDS011;35415;47.870;16.058;2023-06-10T08:30:59;8.95;;;5.78;;
49514;SDS011;35415;47.870;16.058;2023-06-10T08:33:27;6.35;;;5.72;;
49514;SDS011;35415;47.870;16.058;2023-06-10T08:35:54;7.70;;;5.88;;
49514;SDS011;35415;47.870;16.058;2023-06-10T08:38:24;7.93;;;5.85;;
49514;SDS011;35415;47.870;16.058;2023-06-10T08:40:51;8.80;;;5.60;;
49514;SDS011;35415;47.870;16.058;2023-06-10T08:43:25;7.43;;;6.03;;
49514;SDS011;35415;47.870;16.058;2023-06-10T08:46:01;6.20;;;5.50;;
49514;SDS011;35415;47.870;16.058;2023-06-10T08:48:29;8.35;;;6.00;;
49514;SDS011;35415;47.870;16.058;2023-06-10T08:50:57;7.45;;;5.97;;
49514;SDS011;35415;47.870;16.058;2023-06-10T08:53:28;8.40;;;6.13;;
49514;SDS011;35415;47.870;16.058;2023-06-10T08:55:59;6.70;;;5.80;;
49514;SDS011;35415;47.870;16.058;2023-06-10T08:58:31;8.73;;;5.85;;
49514;SDS011;35415;47.870;16.058;2023-06-10T09:01:05;8.35;;;6.68;;
49514;SDS011;35415;47.870;16.058;2023-06-10T09:03:33;9.38;;;6.20;;
49514;SDS011;35415;47.870;16.058;2023-06-10T09:06:03;7.40;;;6.25;;
49514;SDS011;35415;47.870;16.058;2023-06-10T09:08:34;8.25;;;6.50;;
49514;SDS011;35415;47.870;16.058;2023-06-10T09:11:02;6.35;;;5.53;;
49514;SDS011;35415;47.870;16.058;2023-06-10T09:13:30;9.30;;;6.25;;
49514;SDS011;35415;47.870;16.058;2023-06-10T09:15:57;8.32;;;6.18;;
49514;SDS011;35415;47.870;16.058;2023-06-10T09:18:26;7.05;;;5.97;;
49514;SDS011;35415;47.870;16.058;2023-06-10T09:20:59;6.40;;;5.63;;
49514;SDS011;35415;47.870;16.058;2023-06-10T09:23:26;7.78;;;5.65;;
49514;SDS011;35415;47.870;16.058;2023-06-10T09:25:58;10.70;;;6.57;;
49514;SDS011;35415;47.870;16.058;2023-06-10T09:28:25;7.35;;;5.75;;
49514;SDS011;35415;47.870;16.058;2023-06-10T09:31:01;8.82;;;6.68;;
49514;SDS011;35415;47.870;16.058;2023-06-10T09:33:30;7.70;;;6.32;;
49514;SDS011;35415;47.870;16.058;2023-06-10T09:35:59;8.13;;;6.60;;
49514;SDS011;35415;47.870;16.058;2023-06-10T09:38:29;10.15;;;6.38;;
49514;SDS011;35415;47.870;16.058;2023-06-10T09:41:00;8.32;;;6.15;;
49514;SDS011;35415;47.870;16.058;2023-06-10T09:43:42;9.75;;;6.85;;
49514;SDS011;35415;47.870;16.058;2023-06-10T09:46:17;8.13;;;6.33;;
49514;SDS011;35415;47.870;16.058;2023-06-10T09:48:47;10.38;;;6.13;;
49514;SDS011;35415;47.870;16.058;2023-06-10T09:51:17;8.07;;;6.70;;
49514;SDS011;35415;47.870;16.058;2023-06-10T09:53:47;8.02;;;6.10;;
49514;SDS011;35415;47.870;16.058;2023-06-10T09:56:18;10.75;;;6.45;;
49514;SDS011;35415;47.870;16.058;2023-06-10T10:01:26;9.70;;;7.20;;
49514;SDS011;35415;47.870;16.058;2023-06-10T10:03:54;8.00;;;6.05;;
49514;SDS011;35415;47.870;16.058;2023-06-10T10:06:24;11.38;;;6.70;;
49514;SDS011;35415;47.870;16.058;2023-06-10T10:08:52;9.27;;;6.88;;
49514;SDS011;35415;47.870;16.058;2023-06-10T10:11:24;10.43;;;6.72;;
49514;SDS011;35415;47.870;16.058;2023-06-10T10:13:52;8.10;;;6.55;;
49514;SDS011;35415;47.870;16.058;2023-06-10T10:16:20;8.95;;;6.70;;
49514;SDS011;35415;47.870;16.058;2023-06-10T10:19:01;9.00;;;6.95;;
49514;SDS011;35415;47.870;16.058;2023-06-10T10:21:35;8.68;;;6.40;;
49514;SDS011;35415;47.870;16.058;2023-06-10T10:24:14;9.95;;;7.45;;
49514;SDS011;35415;47.870;16.058;2023-06-10T10:26:50;10.60;;;6.82;;
49514;SDS011;35415;47.870;16.058;2023-06-10T10:29:19;9.20;;;6.63;;
49514;SDS011;35415;47.870;16.058;2023-06-10T10:31:51;10.02;;;6.68;;
49514;SDS011;35415;47.870;16.058;2023-06-10T10:34:24;9.93;;;7.13;;
49514;SDS011;35415;47.870;16.058;2023-06-10T10:36:57;8.43;;;7.05;;
49514;SDS011;35415;47.870;16.058;2023-06-10T10:39:28;8.77;;;7.05;;
49514;SDS011;35415;47.870;16.058;2023-06-10T10:41:59;7.93;;;6.53;;
49514;SDS011;35415;47.870;16.058;2023-06-10T10:44:29;10.45;;;7.38;;
49514;SDS011;35415;47.870;16.058;2023-06-10T10:46:58;8.85;;;6.65;;
49514;SDS011;35415;47.870;16.058;2023-06-10T10:49:30;7.68;;;6.30;;
49514;SDS011;35415;47.870;16.058;2023-06-10T10:52:13;8.68;;;6.97;;
49514;SDS011;35415;47.870;16.058;2023-06-10T10:54:43;10.23;;;6.50;;
49514;SDS011;35415;47.870;16.058;2023-06-10T10:57:20;8.88;;;6.93;;
49514;SDS011;35415;47.870;16.058;2023-06-10T10:59:56;11.05;;;7.25;;
49514;SDS011;35415;47.870;16.058;2023-06-10T11:02:34;8.40;;;6.10;;
49514;SDS011;35415;47.870;16.058;2023-06-10T11:05:04;8.35;;;6.35;;
49514;SDS011;35415;47.870;16.058;2023-06-10T11:07:34;8.50;;;6.78;;
49514;SDS011;35415;47.870;16.058;2023-06-10T11:25:19;10.20;;;7.75;;
49514;SDS011;35415;47.870;16.058;2023-06-10T11:28:16;9.18;;;7.28;;
49514;SDS011;35415;47.870;16.058;2023-06-10T11:30:46;8.55;;;6.78;;
49514;SDS011;35415;47.870;16.058;2023-06-10T11:33:31;8.75;;;6.57;;
49514;SDS011;35415;47.870;16.058;2023-06-10T11:35:59;8.80;;;7.35;;
49514;SDS011;35415;47.870;16.058;2023-06-10T11:38:30;8.95;;;6.43;;
49514;SDS011;35415;47.870;16.058;2023-06-10T11:41:15;7.38;;;5.78;;
49514;SDS011;35415;47.870;16.058;2023-06-10T11:43:49;8.63;;;5.93;;
49514;SDS011;35415;47.870;16.058;2023-06-10T11:46:26;10.23;;;5.72;;
49514;SDS011;35415;47.870;16.058;2023-06-10T11:49:02;9.25;;;6.75;;
49514;SDS011;35415;47.870;16.058;2023-06-10T11:51:35;8.95;;;6.25;;
49514;SDS011;35415;47.870;16.058;2023-06-10T11:54:04;6.60;;;5.80;;
49514;SDS011;35415;47.870;16.058;2023-06-10T11:59:06;7.18;;;5.88;;
49514;SDS011;35415;47.870;16.058;2023-06-10T12:01:34;7.95;;;5.90;;
49514;SDS011;35415;47.870;16.058;2023-06-10T12:04:08;9.70;;;5.93;;
49514;SDS011;35415;47.870;16.058;2023-06-10T12:06:43;7.38;;;6.15;;
49514;SDS011;35415;47.870;16.058;2023-06-10T12:09:13;10.93;;;6.00;;
49514;SDS011;35415;47.870;16.058;2023-06-10T12:11:48;7.32;;;5.97;;
49514;SDS011;35415;47.870;16.058;2023-06-10T12:19:48;8.85;;;7.22;;
49514;SDS011;35415;47.870;16.058;2023-06-10T12:22:16;9.77;;;8.40;;
49514;SDS011;35415;47.870;16.058;2023-06-10T12:24:45;14.45;;;11.07;;
49514;SDS011;35415;47.870;16.058;2023-06-10T12:27:26;25.95;;;20.83;;
49514;SDS011;35415;47.870;16.058;2023-06-10T12:29:56;10.88;;;6.53;;
49514;SDS011;35415;47.870;16.058;2023-06-10T12:32:34;9.32;;;6.40;;
49514;SDS011;35415;47.870;16.058;2023-06-10T12:35:04;10.20;;;6.40;;
49514;SDS011;35415;47.870;16.058;2023-06-10T12:37:33;6.85;;;5.82;;
49514;SDS011;35415;47.870;16.058;2023-06-10T12:40:02;11.23;;;5.45;;
49514;SDS011;35415;47.870;16.058;2023-06-10T12:42:35;6.55;;;5.32;;
49514;SDS011;35415;47.870;16.058;2023-06-10T12:45:04;7.43;;;5.65;;
49514;SDS011;35415;47.870;16.058;2023-06-10T12:47:34;6.30;;;5.18;;
49514;SDS011;35415;47.870;16.058;2023-06-10T12:50:04;7.93;;;5.55;;
49514;SDS011;35415;47.870;16.058;2023-06-10T12:52:32;10.32;;;8.52;;
49514;SDS011;35415;47.870;16.058;2023-06-10T12:55:00;8.00;;;6.03;;
49514;SDS011;35415;47.870;16.058;2023-06-10T12:57:29;5.82;;;4.88;;
49514;SDS011;35415;47.870;16.058;2023-06-10T12:59:58;5.50;;;5.00;;
49514;SDS011;35415;47.870;16.058;2023-06-10T13:02:29;5.75;;;4.95;;
49514;SDS011;35415;47.870;16.058;2023-06-10T13:05:04;6.75;;;5.28;;
49514;SDS011;35415;47.870;16.058;2023-06-10T13:07:32;5.43;;;4.88;;
49514;SDS011;35415;47.870;16.058;2023-06-10T13:09:59;6.00;;;5.25;;
49514;SDS011;35415;47.870;16.058;2023-06-10T13:12:31;5.70;;;5.03;;
49514;SDS011;35415;47.870;16.058;2023-06-10T13:15:03;5.75;;;5.15;;
49514;SDS011;35415;47.870;16.058;2023-06-10T13:17:32;6.82;;;4.75;;
49514;SDS011;35415;47.870;16.058;2023-06-10T13:20:01;5.15;;;4.65;;
49514;SDS011;35415;47.870;16.058;2023-06-10T13:22:30;5.10;;;4.45;;
49514;SDS011;35415;47.870;16.058;2023-06-10T13:25:02;6.68;;;4.82;;
49514;SDS011;35415;47.870;16.058;2023-06-10T13:27:30;8.93;;;5.32;;
49514;SDS011;35415;47.870;16.058;2023-06-10T13:30:00;7.60;;;5.15;;
49514;SDS011;35415;47.870;16.058;2023-06-10T13:32:32;7.30;;;5.28;;
49514;SDS011;35415;47.870;16.058;2023-06-10T13:34:59;5.45;;;4.40;;
49514;SDS011;35415;47.870;16.058;2023-06-10T13:37:27;7.57;;;5.25;;
49514;SDS011;35415;47.870;16.058;2023-06-10T13:39:58;6.15;;;4.47;;
49514;SDS011;35415;47.870;16.058;2023-06-10T13:42:26;6.68;;;5.28;;
49514;SDS011;35415;47.870;16.058;2023-06-10T13:45:00;6.07;;;5.00;;
49514;SDS011;35415;47.870;16.058;2023-06-10T13:47:30;5.72;;;4.85;;
49514;SDS011;35415;47.870;16.058;2023-06-10T13:49:58;7.28;;;4.82;;
49514;SDS011;35415;47.870;16.058;2023-06-10T13:52:25;5.40;;;4.70;;
49514;SDS011;35415;47.870;16.058;2023-06-10T13:54:55;5.13;;;4.60;;
49514;SDS011;35415;47.870;16.058;2023-06-10T13:57:22;6.13;;;4.85;;
49514;SDS011;35415;47.870;16.058;2023-06-10T13:59:50;4.50;;;4.10;;
49514;SDS011;35415;47.870;16.058;2023-06-10T14:02:18;5.38;;;4.50;;
49514;SDS011;35415;47.870;16.058;2023-06-10T14:04:50;4.75;;;4.28;;
49514;SDS011;35415;47.870;16.058;2023-06-10T14:07:19;4.57;;;4.03;;
49514;SDS011;35415;47.870;16.058;2023-06-10T14:09:46;5.07;;;4.20;;
49514;SDS011;35415;47.870;16.058;2023-06-10T14:12:14;5.45;;;4.18;;
49514;SDS011;35415;47.870;16.058;2023-06-10T14:14:41;9.10;;;4.43;;
49514;SDS011;35415;47.870;16.058;2023-06-10T14:17:08;4.80;;;4.28;;
49514;SDS011;35415;47.870;16.058;2023-06-10T14:19:35;5.60;;;4.93;;
49514;SDS011;35415;47.870;16.058;2023-06-10T14:22:07;5.80;;;4.47;;
49514;SDS011;35415;47.870;16.058;2023-06-10T14:24:35;5.90;;;4.80;;
49514;SDS011;35415;47.870;16.058;2023-06-10T14:27:03;8.80;;;4.88;;
49514;SDS011;35415;47.870;16.058;2023-06-10T14:29:33;5.63;;;4.90;;
49514;SDS011;35415;47.870;16.058;2023-06-10T14:32:04;6.60;;;5.32;;
49514;SDS011;35415;47.870;16.058;2023-06-10T14:34:31;6.40;;;5.15;;
49514;SDS011;35415;47.870;16.058;2023-06-10T14:36:59;6.72;;;5.57;;
49514;SDS011;35415;47.870;16.058;2023-06-10T14:39:30;9.90;;;7.03;;
49514;SDS011;35415;47.870;16.058;2023-06-10T14:41:58;7.03;;;5.38;;
49514;SDS011;35415;47.870;16.058;2023-06-10T14:44:26;10.60;;;6.85;;
49514;SDS011;35415;47.870;16.058;2023-06-10T14:46:54;17.73;;;8.57;;
49514;SDS011;35415;47.870;16.058;2023-06-10T14:49:22;11.63;;;7.63;;
49514;SDS011;35415;47.870;16.058;2023-06-10T14:51:49;13.70;;;7.70;;
49514;SDS011;35415;47.870;16.058;2023-06-10T14:54:17;11.32;;;7.80;;
49514;SDS011;35415;47.870;16.058;2023-06-10T14:56:46;15.38;;;9.27;;
49514;SDS011;35415;47.870;16.058;2023-06-10T14:59:13;10.20;;;7.72;;
49514;SDS011;35415;47.870;16.058;2023-06-10T15:01:41;7.82;;;6.57;;
49514;SDS011;35415;47.870;16.058;2023-06-10T15:04:10;6.57;;;5.90;;
49514;SDS011;35415;47.870;16.058;2023-06-10T15:06:38;6.97;;;5.35;;
49514;SDS011;35415;47.870;16.058;2023-06-10T15:09:06;9.48;;;6.68;;
49514;SDS011;35415;47.870;16.058;2023-06-10T15:11:34;7.80;;;6.50;;
49514;SDS011;35415;47.870;16.058;2023-06-10T15:14:05;9.50;;;6.75;;
49514;SDS011;35415;47.870;16.058;2023-06-10T15:16:32;7.55;;;6.50;;
49514;SDS011;35415;47.870;16.058;2023-06-10T15:19:02;7.57;;;6.20;;
49514;SDS011;35415;47.870;16.058;2023-06-10T15:21:32;7.85;;;5.95;;
49514;SDS011;35415;47.870;16.058;2023-06-10T15:24:00;6.28;;;5.60;;
49514;SDS011;35415;47.870;16.058;2023-06-10T15:26:32;10.70;;;5.80;;
49514;SDS011;35415;47.870;16.058;2023-06-10T15:29:01;10.90;;;5.82;;
49514;SDS011;35415;47.870;16.058;2023-06-10T15:31:32;6.47;;;5.18;;
49514;SDS011;35415;47.870;16.058;2023-06-10T15:33:59;7.32;;;5.55;;
49514;SDS011;35415;47.870;16.058;2023-06-10T15:36:32;6.60;;;5.70;;
49514;SDS011;35415;47.870;16.058;2023-06-10T15:39:02;7.40;;;5.68;;